Terminal Aerodrome Forecast
Issued by NWS Portland, OR

Home | Current Version | Previous Version | Text Only | Print | Product List | Glossary On
Versions: 1 2 3 4 5 6 7 8 9 10 11 12 13 14 15 16 17 18 19 20 21 22 23 24 25 26 27
000
FTUS46 KPQR 221340 AAA
TAFPDX
TAF AMD
KPDX 221340Z 2214/2312 11011KT P6SM -RA SCT015 OVC050
      TEMPO 2214/2218 3SM -RADZ BKN015 OVC050
     FM230200 12010KT P6SM -RA BKN025 OVC040=

USA.gov is the U.S. government's official web portal to all federal, state and local government web resources and services.